Time;durP1;ratioP1;P1;durP2;ratioP2;P2;SDS_P1;SDS_P2;PMS_P1;PMS_P2;Temp;Humidity;BMP_temperature;BMP_pressure;BME280_temperature;BME280_humidity;BME280_pressure;Samples;Min_cycle;Max_cycle;Signal;HPM_P1;HPM_P2
2021/09/12 00:00:34;;;;;;;;;;;;;;;19.24;55.95;98750.34;5090187;28;19963;-92
2021/09/12 00:03:01;;;;;;;;;;;;;;;19.28;56.07;98746.50;5091877;28;19964;-91
2021/09/12 00:05:27;;;;;;;;;;;;;;;19.34;55.55;98747.91;5090539;28;19924;-93
2021/09/12 00:07:53;;;;;;;;;;;;;;;19.37;55.45;98750.44;5094409;28;19969;-90
2021/09/12 00:10:19;;;;;;;;;;;;;;;19.39;54.82;98752.06;5092923;28;19966;-92
2021/09/12 00:12:45;;;;;;;;;;;;;;;19.49;54.09;98750.50;5090355;28;19920;-92
2021/09/12 00:15:11;;;;;;;;;;;;;;;19.57;53.98;98751.84;5088726;28;19927;-93
2021/09/12 00:17:36;;;;;;;;;;;;;;;19.56;53.76;98748.28;5093896;28;19932;-92
2021/09/12 00:20:05;;;;;;;;;;;;;;;19.46;54.61;98753.41;5093426;28;20370;-91
2021/09/12 00:22:30;;;;;;;;;;;;;;;19.09;57.35;98744.94;5090813;28;19974;-92
2021/09/12 00:24:56;;;;;;;;;;;;;;;18.59;58.90;98751.56;5088961;28;19924;-93
2021/09/12 00:27:22;;;;;;;;;;;;;;;18.18;59.82;98759.41;5089954;28;19927;-91
2021/09/12 00:29:47;;;;;;;;;;;;;;;17.96;60.99;98752.56;5088839;28;19985;-91
2021/09/12 00:32:13;;;;;;;;;;;;;;;17.72;62.10;98760.19;5090686;28;20011;-93
2021/09/12 00:34:38;;;;;;;;;;;;;;;17.54;62.37;98759.38;5088220;28;20262;-91
2021/09/12 00:37:05;;;;;;;;;;;;;;;17.48;63.15;98764.22;5090160;28;19942;-92
2021/09/12 00:39:31;;;;;;;;;;;;;;;17.41;63.88;98759.22;5087446;28;20298;-92
2021/09/12 00:41:56;;;;;;;;;;;;;;;17.44;63.61;98752.81;5088811;28;20023;-91
2021/09/12 00:44:22;;;;;;;;;;;;;;;17.45;63.73;98757.22;5091628;28;20434;-93
2021/09/12 00:46:48;;;;;;;;;;;;;;;17.32;64.86;98762.38;5094539;28;19963;-92
2021/09/12 00:49:15;;;;;;;;;;;;;;;17.28;64.97;98760.81;5095608;28;19924;-92
2021/09/12 00:51:40;;;;;;;;;;;;;;;17.31;64.89;98763.34;5093560;28;19934;-92
2021/09/12 00:54:08;;;;;;;;;;;;;;;17.33;64.80;98766.84;5090436;28;20050;-93
2021/09/12 00:56:35;;;;;;;;;;;;;;;17.41;64.39;98759.22;5090635;28;20027;-94
2021/09/12 00:59:01;;;;;;;;;;;;;;;17.64;63.00;98755.22;5092013;28;19916;-94
2021/09/12 01:01:27;;;;;;;;;;;;;;;17.95;61.96;98750.81;5089803;28;19931;-91
2021/09/12 01:03:53;;;;;;;;;;;;;;;17.97;62.13;98757.00;5093544;28;20019;-92
2021/09/12 01:06:18;;;;;;;;;;;;;;;17.80;62.46;98747.19;5089286;28;19959;-92
2021/09/12 01:08:44;;;;;;;;;;;;;;;17.75;61.96;98749.25;5093911;28;20369;-94
2021/09/12 01:11:11;;;;;;;;;;;;;;;18.17;60.14;98750.47;5089304;28;19941;-92
2021/09/12 01:13:37;;;;;;;;;;;;;;;18.38;59.16;98740.25;5092329;28;19977;-91
2021/09/12 01:16:08;;;;;;;;;;;;;;;18.50;58.71;98730.59;5090495;28;19973;-93
2021/09/12 01:18:33;;;;;;;;;;;;;;;18.64;57.85;98733.28;5086905;28;20267;-93
2021/09/12 01:20:59;;;;;;;;;;;;;;;18.75;56.96;98732.63;5091066;28;19946;-91
2021/09/12 01:23:25;;;;;;;;;;;;;;;18.85;56.36;98727.59;5090465;28;20796;-91
2021/09/12 01:25:56;;;;;;;;;;;;;;;18.97;56.04;98729.50;5093540;28;19920;-92
2021/09/12 01:28:21;;;;;;;;;;;;;;;19.04;55.94;98724.59;5092246;28;19959;-92
2021/09/12 01:30:47;;;;;;;;;;;;;;;19.09;55.17;98734.16;5086702;28;19924;-89
2021/09/12 01:33:12;;;;;;;;;;;;;;;19.17;54.74;98724.72;5092894;28;19920;-92
2021/09/12 01:35:38;;;;;;;;;;;;;;;19.06;55.39;98733.47;5087434;28;19962;-91
2021/09/12 01:38:03;;;;;;;;;;;;;;;19.09;55.09;98728.75;5086413;28;19920;-91
2021/09/12 01:40:29;;;;;;;;;;;;;;;19.01;55.33;98720.28;5090657;28;20780;-93
2021/09/12 01:42:58;;;;;;;;;;;;;;;18.93;55.29;98722.56;5089936;28;20017;-93
2021/09/12 01:45:24;;;;;;;;;;;;;;;18.92;55.28;98720.88;5092696;28;19920;-93
2021/09/12 01:47:50;;;;;;;;;;;;;;;18.82;55.82;98714.31;5092650;28;19920;-90
2021/09/12 01:50:16;;;;;;;;;;;;;;;18.61;59.74;98721.84;5090770;28;19928;-92
2021/09/12 01:52:41;;;;;;;;;;;;;;;18.31;61.36;98727.25;5095301;28;19927;-93
2021/09/12 01:55:08;;;;;;;;;;;;;;;18.01;62.12;98725.41;5095316;28;19924;-93
2021/09/12 01:57:33;;;;;;;;;;;;;;;17.77;63.56;98727.66;5093504;28;20061;-93
2021/09/12 02:00:00;;;;;;;;;;;;;;;17.58;64.21;98733.19;5092592;28;19990;-92
2021/09/12 02:02:26;;;;;;;;;;;;;;;17.30;65.73;98736.56;5088633;28;19928;-91
2021/09/12 02:04:52;;;;;;;;;;;;;;;17.09;66.62;98731.41;5094375;28;19908;-92
2021/09/12 02:07:17;;;;;;;;;;;;;;;16.91;67.12;98741.31;5091202;28;19973;-91
2021/09/12 02:09:43;;;;;;;;;;;;;;;16.67;68.16;98738.06;5088552;28;19920;-92
2021/09/12 02:12:09;;;;;;;;;;;;;;;16.41;69.15;98748.34;5094999;28;20414;-92
2021/09/12 02:14:35;;;;;;;;;;;;;;;16.28;69.55;98746.38;5094317;28;19927;-92
2021/09/12 02:17:02;;;;;;;;;;;;;;;16.16;69.50;98743.38;5092805;28;19920;-92
2021/09/12 02:19:28;;;;;;;;;;;;;;;15.98;69.95;98738.91;5085196;28;20443;-91
2021/09/12 02:21:53;;;;;;;;;;;;;;;15.77;72.04;98744.41;5094593;28;19919;-92
2021/09/12 02:24:19;;;;;;;;;;;;;;;15.70;71.69;98744.72;5089733;28;19927;-93
2021/09/12 02:26:44;;;;;;;;;;;;;;;15.64;72.50;98747.72;5092706;28;19967;-92
2021/09/12 02:29:10;;;;;;;;;;;;;;;15.51;73.04;98756.34;5091634;28;19921;-91
2021/09/12 02:31:36;;;;;;;;;;;;;;;15.50;73.40;98748.38;5091960;28;19920;-91
2021/09/12 02:34:03;;;;;;;;;;;;;;;15.40;73.89;98745.28;5090967;28;19928;-93
2021/09/12 02:36:28;;;;;;;;;;;;;;;15.40;73.55;98745.28;5095440;28;19928;-94
2021/09/12 02:38:54;;;;;;;;;;;;;;;15.31;74.03;98743.00;5089529;28;19943;-92
2021/09/12 02:41:20;;;;;;;;;;;;;;;15.18;74.29;98743.59;5090360;28;19973;-93
2021/09/12 02:43:45;;;;;;;;;;;;;;;15.15;74.06;98746.38;5089498;28;20018;-92
2021/09/12 02:46:12;;;;;;;;;;;;;;;15.04;73.92;98745.16;5090971;28;20445;-93
2021/09/12 02:48:38;;;;;;;;;;;;;;;14.98;73.63;98751.66;5089940;28;19924;-93
2021/09/12 02:51:05;;;;;;;;;;;;;;;14.95;72.83;98747.31;5088859;28;20072;-92
2021/09/12 02:53:30;;;;;;;;;;;;;;;14.92;73.02;98746.56;5093416;28;19920;-92
2021/09/12 02:55:56;;;;;;;;;;;;;;;14.89;74.31;98744.91;5087986;28;19926;-92
2021/09/12 02:58:21;;;;;;;;;;;;;;;14.86;74.19;98747.72;5094150;28;19920;-92
2021/09/12 03:00:47;;;;;;;;;;;;;;;14.90;74.06;98743.13;5090138;28;19923;-91
2021/09/12 03:03:12;;;;;;;;;;;;;;;14.90;73.89;98749.34;5093980;28;19924;-92
2021/09/12 03:05:38;;;;;;;;;;;;;;;14.96;73.83;98748.16;5091803;28;19920;-93
2021/09/12 03:08:05;;;;;;;;;;;;;;;14.90;73.63;98738.63;5086127;28;19911;-92
2021/09/12 03:10:31;;;;;;;;;;;;;;;14.81;72.69;98749.72;5093185;28;19927;-92
2021/09/12 03:12:57;;;;;;;;;;;;;;;14.82;73.31;98750.63;5088404;28;19924;-93
2021/09/12 03:15:22;;;;;;;;;;;;;;;14.79;73.34;98749.81;5088424;28;19978;-92
2021/09/12 03:17:48;;;;;;;;;;;;;;;14.69;73.56;98753.81;5091070;28;19992;-94
2021/09/12 03:20:13;;;;;;;;;;;;;;;14.66;74.30;98748.63;5090074;28;19923;-92
2021/09/12 03:22:39;;;;;;;;;;;;;;;14.70;74.14;98743.97;5090780;28;19927;-93
2021/09/12 03:25:07;;;;;;;;;;;;;;;14.90;72.92;98743.13;5089191;28;19929;-94
2021/09/12 03:27:33;;;;;;;;;;;;;;;15.11;72.37;98736.75;5091385;28;19942;-93
2021/09/12 03:29:58;;;;;;;;;;;;;;;15.10;71.76;98739.53;5091922;28;19920;-91
2021/09/12 03:32:24;;;;;;;;;;;;;;;15.18;71.06;98737.38;5088936;28;19920;-92
2021/09/12 03:34:49;;;;;;;;;;;;;;;15.16;71.21;98737.44;5094370;28;20986;-93
2021/09/12 03:37:15;;;;;;;;;;;;;;;15.15;70.91;98737.50;5092615;28;19928;-91
2021/09/12 03:39:40;;;;;;;;;;;;;;;15.11;71.11;98735.91;5093512;28;19920;-92
2021/09/12 03:42:07;;;;;;;;;;;;;;;15.03;71.01;98736.25;5094222;28;19920;-92
2021/09/12 03:44:33;;;;;;;;;;;;;;;14.93;71.54;98738.47;5096814;28;20266;-91
2021/09/12 03:46:59;;;;;;;;;;;;;;;14.90;71.61;98733.28;5093199;28;19944;-92
2021/09/12 03:49:24;;;;;;;;;;;;;;;14.83;71.52;98734.47;5091552;28;20289;-92
2021/09/12 03:51:50;;;;;;;;;;;;;;;14.74;71.06;98737.56;5097952;28;19921;-92
2021/09/12 03:54:16;;;;;;;;;;;;;;;14.51;71.45;98736.75;5090953;28;19931;-90
2021/09/12 03:56:41;;;;;;;;;;;;;;;14.38;71.46;98741.75;5092710;28;19928;-92
2021/09/12 03:59:08;;;;;;;;;;;;;;;14.29;71.67;98739.47;5091062;28;19928;-93
2021/09/12 04:01:34;;;;;;;;;;;;;;;14.28;71.40;98734.19;5092435;28;19924;-93
2021/09/12 04:03:59;;;;;;;;;;;;;;;14.27;71.73;98746.69;5093425;28;19930;-94
2021/09/12 04:06:25;;;;;;;;;;;;;;;14.24;71.81;98740.59;5096670;28;20404;-91
2021/09/12 04:08:51;;;;;;;;;;;;;;;14.25;71.83;98750.34;5097295;28;19944;-91
2021/09/12 04:11:17;;;;;;;;;;;;;;;14.28;71.97;98748.44;5093904;28;19965;-91
2021/09/12 04:13:42;;;;;;;;;;;;;;;14.32;72.90;98742.00;5095007;28;19920;-93
2021/09/12 04:16:10;;;;;;;;;;;;;;;14.31;73.33;98745.63;5089794;28;20650;-90
2021/09/12 04:18:35;;;;;;;;;;;;;;;14.33;73.54;98756.25;5091503;28;19920;-92
2021/09/12 04:21:01;;;;;;;;;;;;;;;14.24;73.71;98746.81;5093085;28;20433;-93
2021/09/12 04:23:26;;;;;;;;;;;;;;;14.28;73.47;98751.09;5089148;28;19920;-91
2021/09/12 04:25:52;;;;;;;;;;;;;;;14.30;73.22;98737.66;5089137;28;19920;-91
2021/09/12 04:28:17;;;;;;;;;;;;;;;14.24;73.74;98759.31;5091356;28;19928;-92
2021/09/12 04:30:43;;;;;;;;;;;;;;;14.21;73.80;98752.31;5090047;28;19995;-92
2021/09/12 04:33:10;;;;;;;;;;;;;;;14.25;74.13;98756.59;5093901;28;19931;-91
2021/09/12 04:35:35;;;;;;;;;;;;;;;14.34;73.47;98749.97;5093896;28;19924;-93
2021/09/12 04:38:03;;;;;;;;;;;;;;;14.33;73.46;98757.16;5093072;28;19923;-92
2021/09/12 04:40:29;;;;;;;;;;;;;;;14.37;73.63;98750.69;5092452;28;19943;-92
2021/09/12 04:42:55;;;;;;;;;;;;;;;14.38;73.37;98752.47;5094313;28;19904;-93
2021/09/12 04:45:20;;;;;;;;;;;;;;;14.33;73.39;98753.56;5090187;28;19931;-93
2021/09/12 04:47:46;;;;;;;;;;;;;;;14.25;73.31;98756.59;5092435;28;19920;-92
2021/09/12 04:50:13;;;;;;;;;;;;;;;14.26;72.93;98758.31;5093595;28;20319;-92
2021/09/12 04:52:39;;;;;;;;;;;;;;;14.31;72.42;98760.78;5097218;28;20320;-92
2021/09/12 04:55:05;;;;;;;;;;;;;;;14.34;72.26;98758.88;5089103;28;19920;-92
2021/09/12 04:57:31;;;;;;;;;;;;;;;14.41;72.17;98770.19;5092056;28;19920;-92
2021/09/12 04:59:56;;;;;;;;;;;;;;;14.56;71.83;98768.69;5093626;28;19974;-94
2021/09/12 05:02:22;;;;;;;;;;;;;;;14.62;71.72;98762.22;5087194;28;19920;-92
2021/09/12 05:04:48;;;;;;;;;;;;;;;14.67;71.34;98757.50;5094074;28;19943;-91
2021/09/12 05:07:15;;;;;;;;;;;;;;;14.53;72.05;98763.41;5094921;28;19943;-92
2021/09/12 05:09:41;;;;;;;;;;;;;;;14.10;73.36;98762.59;5091857;28;20373;-93
2021/09/12 05:12:07;;;;;;;;;;;;;;;13.94;74.42;98765.91;5093291;28;19920;-94
2021/09/12 05:14:33;;;;;;;;;;;;;;;13.81;74.20;98774.44;5093528;28;19920;-92
2021/09/12 05:16:58;;;;;;;;;;;;;;;14.03;73.01;98771.78;5089632;28;19946;-93
2021/09/12 05:19:24;;;;;;;;;;;;;;;14.11;73.12;98764.31;5094248;28;19920;-92
2021/09/12 05:21:49;;;;;;;;;;;;;;;14.13;72.95;98765.13;5090644;28;19927;-91
2021/09/12 05:24:16;;;;;;;;;;;;;;;14.24;72.37;98770.88;5091783;28;20297;-92
2021/09/12 05:26:42;;;;;;;;;;;;;;;14.33;72.42;98775.88;5093869;28;19941;-91
2021/09/12 05:29:07;;;;;;;;;;;;;;;14.29;72.44;98773.34;5091484;28;19924;-92
2021/09/12 05:31:33;;;;;;;;;;;;;;;14.30;72.87;98775.13;5090762;28;19927;-92
2021/09/12 05:33:59;;;;;;;;;;;;;;;14.39;72.82;98780.06;5091897;28;19920;-91
2021/09/12 05:36:24;;;;;;;;;;;;;;;14.49;72.53;98784.09;5095608;28;19927;-92
2021/09/12 05:38:50;;;;;;;;;;;;;;;14.61;71.96;98787.22;5091346;28;19920;-92
2021/09/12 05:41:17;;;;;;;;;;;;;;;14.72;71.32;98788.47;5093834;28;19928;-92
2021/09/12 05:43:42;;;;;;;;;;;;;;;14.84;70.78;98792.44;5092534;28;20373;-93
2021/09/12 05:46:08;;;;;;;;;;;;;;;14.95;70.79;98783.94;5090009;28;19950;-92
2021/09/12 05:48:34;;;;;;;;;;;;;;;15.02;71.07;98789.88;5095960;28;19928;-93
2021/09/12 05:50:59;;;;;;;;;;;;;;;15.04;71.03;98793.38;5098394;28;19920;-94
2021/09/12 05:53:27;;;;;;;;;;;;;;;15.06;71.00;98797.72;5096974;28;20000;-93
2021/09/12 05:55:52;;;;;;;;;;;;;;;15.10;70.85;98793.09;5090514;28;19920;-94
2021/09/12 05:58:20;;;;;;;;;;;;;;;15.14;70.64;98800.91;5092915;28;20390;-93
2021/09/12 06:00:45;;;;;;;;;;;;;;;15.16;69.87;98792.81;5091767;28;20417;-92
2021/09/12 06:03:11;;;;;;;;;;;;;;;15.22;69.66;98794.34;5096514;28;19955;-93
2021/09/12 06:05:37;;;;;;;;;;;;;;;15.26;70.02;98799.47;5093364;28;19943;-91
2021/09/12 06:08:03;;;;;;;;;;;;;;;15.36;69.49;98791.91;5089632;28;19920;-92
2021/09/12 06:10:29;;;;;;;;;;;;;;;15.47;69.14;98794.94;5091916;28;20317;-93
2021/09/12 06:12:55;;;;;;;;;;;;;;;15.63;68.67;98786.19;5096176;28;20416;-93
2021/09/12 06:15:23;;;;;;;;;;;;;;;15.82;67.96;98795.97;5090131;28;19956;-93
2021/09/12 06:17:50;;;;;;;;;;;;;;;16.01;67.74;98795.97;5093074;28;19929;-92
2021/09/12 06:20:20;;;;;;;;;;;;;;;16.19;66.90;98794.19;5095330;28;19931;-91
2021/09/12 06:22:46;;;;;;;;;;;;;;;16.34;66.47;98795.25;5090546;28;20380;-92
2021/09/12 06:25:14;;;;;;;;;;;;;;;16.49;66.17;98798.09;5092139;28;19924;-94
2021/09/12 06:27:43;;;;;;;;;;;;;;;16.64;65.99;98794.63;5093549;28;20326;-93
2021/09/12 06:30:10;;;;;;;;;;;;;;;16.80;65.36;98789.38;5085278;28;19957;-94
2021/09/12 06:32:38;;;;;;;;;;;;;;;16.97;64.87;98794.72;5091504;28;19927;-95
2021/09/12 06:35:04;;;;;;;;;;;;;;;17.23;63.98;98796.00;5098147;28;19920;-95
2021/09/12 06:37:32;;;;;;;;;;;;;;;17.42;63.41;98793.19;5091397;28;19926;-94
2021/09/12 06:40:07;;;;;;;;;;;;;;;17.57;61.97;98788.81;5090408;28;20002;-94
2021/09/12 06:42:34;;;;;;;;;;;;;;;17.57;61.70;98798.69;5081213;28;20010;-94
2021/09/12 06:45:04;;;;;;;;;;;;;;;17.70;61.76;98798.91;5081107;28;19942;-94
2021/09/12 06:47:30;;;;;;;;;;;;;;;17.43;62.74;98797.59;5088825;28;19920;-93
2021/09/12 06:49:58;;;;;;;;;;;;;;;17.43;62.49;98792.22;5093230;28;19926;-94
2021/09/12 06:52:23;;;;;;;;;;;;;;;17.14;63.39;98795.66;5094745;28;19920;-93
2021/09/12 06:54:49;;;;;;;;;;;;;;;17.17;63.26;98792.78;5086712;28;19981;-93
2021/09/12 06:57:14;;;;;;;;;;;;;;;17.28;63.21;98795.75;5086735;28;19920;-92
2021/09/12 06:59:40;;;;;;;;;;;;;;;17.34;62.55;98787.38;5084715;28;19942;-94
2021/09/12 07:02:05;;;;;;;;;;;;;;;17.61;62.32;98786.81;5090500;28;20378;-93
2021/09/12 07:04:31;;;;;;;;;;;;;;;17.99;60.99;98789.19;5090897;28;19920;-94
2021/09/12 07:06:58;;;;;;;;;;;;;;;18.39;59.38;98784.19;5092334;28;19920;-93
2021/09/12 07:09:24;;;;;;;;;;;;;;;18.77;57.81;98778.34;5092410;28;20089;-93
2021/09/12 07:11:49;;;;;;;;;;;;;;;19.05;55.95;98772.19;5096286;28;19954;-95
2021/09/12 07:14:15;;;;;;;;;;;;;;;19.31;55.60;98772.38;5095987;28;20339;-94
2021/09/12 07:16:40;;;;;;;;;;;;;;;19.50;55.47;98781.91;5080900;28;19920;-95
2021/09/12 07:19:07;;;;;;;;;;;;;;;19.73;54.74;98782.28;5088341;28;19942;-94
2021/09/12 07:21:33;;;;;;;;;;;;;;;19.84;53.95;98784.28;5089104;28;19920;-94
2021/09/12 07:24:01;;;;;;;;;;;;;;;19.92;53.63;98781.09;5093152;28;19927;-94
2021/09/12 07:26:26;;;;;;;;;;;;;;;19.96;53.53;98772.72;5086272;28;19920;-95
2021/09/12 07:30:58;;;;;;;23.35;15.40;;;;;;;20.19;53.92;98771.19;5105765;27;20391;-93
2021/09/12 07:33:24;;;;;;;22.05;15.13;;;;;;;20.39;52.47;98774.41;5073099;28;20072;-95
2021/09/12 07:35:50;;;;;;;22.40;14.93;;;;;;;20.49;52.40;98756.59;5072996;28;20131;-93
2021/09/12 07:38:16;;;;;;;18.75;14.88;;;;;;;20.75;52.22;98770.19;5072118;28;20033;-93
2021/09/12 07:40:42;;;;;;;19.45;15.48;;;;;;;20.61;52.32;98760.34;5072593;28;20394;-94
2021/09/12 07:43:08;;;;;;;19.63;14.93;;;;;;;20.93;51.82;98768.94;5072501;28;20036;-94
2021/09/12 07:45:34;;;;;;;21.80;15.32;;;;;;;21.19;50.79;98771.63;5072240;28;20150;-91
2021/09/12 07:48:02;;;;;;;19.77;14.90;;;;;;;21.38;50.11;98766.63;5071857;28;20068;-93
2021/09/12 07:50:27;;;;;;;19.67;14.82;;;;;;;21.59;49.99;98763.41;5072624;28;20566;-92
2021/09/12 07:52:53;;;;;;;19.58;15.05;;;;;;;21.82;49.07;98762.59;5071686;28;20068;-93
2021/09/12 07:55:19;;;;;;;24.40;15.50;;;;;;;22.02;48.36;98757.56;5071586;28;20108;-94
2021/09/12 07:57:45;;;;;;;20.00;14.90;;;;;;;22.16;47.91;98762.78;5071811;28;20480;-92
2021/09/12 08:00:12;;;;;;;21.95;14.57;;;;;;;22.34;47.77;98761.44;5069528;28;20105;-94
2021/09/12 08:02:38;;;;;;;21.48;15.07;;;;;;;22.50;47.73;98765.69;5071865;28;20040;-94
2021/09/12 08:05:06;;;;;;;20.85;14.68;;;;;;;22.06;48.20;98762.63;5071944;28;20508;-93
2021/09/12 08:07:32;;;;;;;;;;;;;;;22.26;48.18;98779.25;5072278;28;20045;-93
2021/09/12 08:09:59;;;;;;;19.92;15.20;;;;;;;22.16;48.02;98760.06;5071868;28;19927;-95
2021/09/12 08:12:25;;;;;;;22.20;14.43;;;;;;;22.21;49.05;98759.75;5071474;28;20148;-93
2021/09/12 08:14:51;;;;;;;18.13;13.88;;;;;;;22.57;47.69;98758.81;5069980;28;20132;-93
2021/09/12 08:17:17;;;;;;;19.23;13.35;;;;;;;22.76;46.61;98756.41;5072630;28;20047;-94
2021/09/12 08:19:43;;;;;;;18.38;13.43;;;;;;;23.08;45.63;98766.63;5071573;28;20066;-94
2021/09/12 08:22:10;;;;;;;22.20;13.20;;;;;;;22.70;46.70;98751.47;5071604;28;20120;-93
2021/09/12 08:24:36;;;;;;;17.20;12.70;;;;;;;22.66;45.71;98755.41;5070877;28;20076;-95
2021/09/12 08:27:11;;;;;;;17.25;12.10;;;;;;;23.09;43.68;98757.50;5070201;28;20044;-93
2021/09/12 08:29:37;;;;;;;18.15;12.32;;;;;;;23.36;42.75;98767.16;5069231;28;20117;-93
2021/09/12 08:32:03;;;;;;;17.38;12.23;;;;;;;23.63;43.24;98760.50;5069331;28;20135;-93
2021/09/12 08:34:29;;;;;;;16.63;12.32;;;;;;;23.69;44.13;98763.56;5068090;28;20037;-94
2021/09/12 08:36:55;;;;;;;17.20;12.30;;;;;;;23.92;42.18;98758.13;5069413;28;20047;-94
2021/09/12 08:39:23;;;;;;;17.73;11.98;;;;;;;23.77;40.12;98749.44;5070189;28;20490;-96
2021/09/12 08:41:49;;;;;;;15.02;11.27;;;;;;;24.06;41.26;98752.44;5059720;28;20037;-92
2021/09/12 08:44:19;;;;;;;14.80;12.00;;;;;;;23.99;40.29;98754.81;5057109;28;20486;-95
2021/09/12 08:46:48;;;;;;;15.48;11.73;;;;;;;24.28;40.21;98748.78;5056680;28;20076;-94
2021/09/12 08:49:16;;;;;;;15.23;11.13;;;;;;;24.47;38.24;98745.38;5057752;28;20090;-95
2021/09/12 08:51:42;;;;;;;15.52;11.07;;;;;;;24.45;37.78;98751.94;5057695;28;20044;-93
2021/09/12 08:54:08;;;;;;;12.10;10.07;;;;;;;24.20;37.41;98734.97;5057912;28;20040;-95
2021/09/12 08:56:36;;;;;;;13.48;10.75;;;;;;;24.14;38.45;98746.38;5057727;28;20045;-94
2021/09/12 08:59:02;;;;;;;14.15;11.25;;;;;;;24.24;38.47;98750.03;5057326;28;20516;-93
2021/09/12 09:01:32;;;;;;;14.15;11.40;;;;;;;24.57;38.58;98742.75;5056005;28;20044;-94
2021/09/12 09:04:00;;;;;;;15.57;11.18;;;;;;;24.44;37.55;98736.63;5055986;28;20051;-93
2021/09/12 09:06:32;;;;;;;14.75;11.25;;;;;;;24.57;37.83;98745.47;5056056;28;20045;-93
2021/09/12 09:11:58;;;;;;;13.98;11.18;;;;;;;24.76;37.75;98752.94;5105746;27;20360;-94
2021/09/12 09:14:24;;;;;;;12.80;10.88;;;;;;;24.65;37.23;98721.22;5072234;28;20524;-94
2021/09/12 09:16:51;;;;;;;13.45;10.90;;;;;;;24.94;36.58;98726.00;5070512;28;20162;-95
2021/09/12 09:19:18;;;;;;;13.73;10.55;;;;;;;25.05;36.73;98714.16;5071582;28;20091;-94
2021/09/12 09:21:46;;;;;;;13.40;10.60;;;;;;;25.10;36.47;98740.00;5071234;28;20075;-94
2021/09/12 09:27:11;;;;;;;13.65;10.27;;;;;;;25.14;36.22;98719.69;5135706;27;20406;-92
2021/09/12 09:29:37;;;;;;;16.38;10.98;;;;;;;25.29;36.57;98727.53;5138473;27;20141;-94
2021/09/12 09:32:07;;;;;;;16.00;11.30;;;;;;;25.46;36.59;98729.63;5135146;27;20039;-95
2021/09/12 09:34:34;;;;;;;14.60;11.00;;;;;;;25.55;36.53;98722.50;5137227;27;20038;-94
2021/09/12 09:37:08;;;;;;;14.02;10.35;;;;;;;25.66;35.71;98711.47;5134419;27;20047;-92
2021/09/12 09:39:35;;;;;;;14.63;10.85;;;;;;;25.54;36.13;98726.19;5133091;28;20377;-95
2021/09/12 09:42:01;;;;;;;13.85;10.65;;;;;;;25.57;35.74;98721.34;5133823;27;20404;-93
2021/09/12 09:44:29;;;;;;;11.63;10.13;;;;;;;25.37;36.12;98714.97;5134869;27;20039;-93
2021/09/12 09:46:55;;;;;;;11.77;10.32;;;;;;;25.46;36.11;98720.56;5135269;27;20130;-94
2021/09/12 09:49:24;;;;;;;12.10;10.02;;;;;;;25.62;35.97;98715.47;5135302;27;20496;-94
2021/09/12 09:51:51;;;;;;;15.20;10.77;;;;;;;25.80;36.19;98699.31;5135876;27;20047;-94
2021/09/12 09:54:17;;;;;;;14.55;10.93;;;;;;;25.98;35.29;98716.75;5135831;27;20088;-93
2021/09/12 09:56:46;;;;;;;13.57;10.68;;;;;;;25.75;35.45;98701.63;5137114;27;20035;-94
2021/09/12 09:59:13;;;;;;;13.65;10.60;;;;;;;26.07;34.75;98712.31;5138514;27;20036;-93
2021/09/12 10:01:42;;;;;;;12.90;9.82;;;;;;;26.15;34.74;98696.09;5134983;27;20035;-95
2021/09/12 10:04:07;;;;;;;;;;;;;;;26.47;34.49;98710.47;5135751;27;20040;-92
2021/09/12 10:06:33;;;;;;;13.43;9.55;;;;;;;26.17;34.74;98709.59;5134475;27;19942;-94
2021/09/12 10:09:00;;;;;;;13.27;11.00;;;;;;;25.78;35.18;98695.88;5139785;27;20065;-95
2021/09/12 10:11:26;;;;;;;16.60;10.07;;;;;;;26.25;34.88;98704.31;5132770;27;20588;-92
2021/09/12 10:13:53;;;;;;;13.18;10.65;;;;;;;26.44;34.77;98687.94;5136011;27;20036;-94
2021/09/12 10:16:20;;;;;;;12.43;10.32;;;;;;;26.46;33.50;98693.25;5132473;28;20043;-94
2021/09/12 10:18:47;;;;;;;11.57;9.88;;;;;;;26.18;34.86;98681.34;5135697;27;20069;-94
2021/09/12 10:21:24;;;;;;;13.45;10.00;;;;;;;26.58;33.93;98692.13;5137415;27;20050;-95
2021/09/12 10:24:05;;;;;;;12.52;10.45;;;;;;;26.32;34.06;98675.44;5130493;27;20075;-94
2021/09/12 10:26:34;;;;;;;14.73;9.77;;;;;;;26.47;34.34;98689.50;5130256;28;20048;-94
2021/09/12 10:29:00;;;;;;;12.38;10.07;;;;;;;26.22;34.26;98685.53;5139655;27;20043;-92
2021/09/12 10:31:39;;;;;;;13.45;10.77;;;;;;;26.39;34.08;98690.25;5133045;27;20127;-92
2021/09/12 10:34:09;;;;;;;13.73;9.30;;;;;;;26.31;34.67;98670.16;5134238;27;20064;-93
2021/09/12 10:36:35;;;;;;;14.55;10.65;;;;;;;26.37;34.66;98675.03;5132406;27;20031;-95
2021/09/12 10:39:27;;;;;;;11.52;9.88;;;;;;;26.80;31.93;98676.44;5122981;27;20495;-93
2021/09/12 10:42:15;;;;;;;11.48;8.85;;;;;;;26.98;30.64;98662.91;5119067;27;20089;-93
2021/09/12 10:44:41;;;;;;;10.27;8.40;;;;;;;27.06;30.18;98654.81;5119719;27;20071;-94
2021/09/12 10:47:09;;;;;;;12.05;9.52;;;;;;;27.13;30.50;98658.69;5123131;27;20051;-91
2021/09/12 10:49:36;;;;;;;12.00;8.93;;;;;;;27.05;30.00;98655.84;5123067;27;20468;-93
2021/09/12 10:52:03;;;;;;;13.20;8.88;;;;;;;26.97;30.27;98644.81;5116289;27;20047;-94
2021/09/12 10:54:31;;;;;;;12.90;9.95;;;;;;;26.67;30.47;98654.91;5119379;28;20093;-93
2021/09/12 10:57:05;;;;;;;12.75;8.90;;;;;;;26.79;30.09;98658.34;5125843;27;20039;-92
2021/09/12 10:59:31;;;;;;;12.13;8.95;;;;;;;26.96;29.31;98654.00;5126736;27;20047;-95
2021/09/12 11:01:57;;;;;;;13.57;8.73;;;;;;;26.88;29.03;98645.69;5120249;27;20106;-90
2021/09/12 11:04:28;;;;;;;12.63;8.80;;;;;;;27.08;29.20;98666.44;5132572;27;20043;-93
2021/09/12 11:07:01;;;;;;;10.80;8.30;;;;;;;26.93;29.24;98636.03;5123918;27;20082;-94
2021/09/12 11:09:28;;;;;;;11.05;8.75;;;;;;;27.03;29.50;98660.59;5124878;27;20043;-93
2021/09/12 11:11:55;;;;;;;11.93;8.35;;;;;;;27.23;29.04;98661.41;5124934;27;20485;-94
2021/09/12 11:14:21;;;;;;;11.13;8.10;;;;;;;27.27;28.12;98667.44;5125012;27;20127;-95
2021/09/12 11:16:47;;;;;;;11.18;8.77;;;;;;;27.08;28.29;98652.78;5119742;27;20663;-93
2021/09/12 11:19:14;;;;;;;11.18;7.97;;;;;;;27.29;27.98;98633.50;5122777;27;20039;-92
2021/09/12 11:21:42;;;;;;;12.25;8.60;;;;;;;27.50;27.84;98630.53;5120189;27;20050;-92
2021/09/12 11:24:11;;;;;;;11.32;9.02;;;;;;;27.34;28.14;98631.16;5120224;27;20043;-93
2021/09/12 11:26:38;;;;;;;13.52;8.52;;;;;;;27.60;27.62;98631.31;5117619;28;20040;-94
2021/09/12 11:29:07;;;;;;;10.15;7.90;;;;;;;27.74;27.65;98635.41;5118272;28;20061;-94
2021/09/12 11:31:35;;;;;;;10.88;8.15;;;;;;;27.86;26.69;98647.00;5121273;27;20508;-95
2021/09/12 11:34:02;;;;;;;10.98;8.10;;;;;;;27.80;26.88;98629.31;5123248;27;20036;-93
2021/09/12 11:36:45;;;;;;;10.98;8.88;;;;;;;27.60;26.83;98623.09;5123697;27;20035;-91
2021/09/12 11:39:13;;;;;;;11.60;8.70;;;;;;;27.29;27.98;98633.50;5118631;28;20044;-94
2021/09/12 11:41:41;;;;;;;;;;;;;;;27.47;27.61;98643.63;5122797;27;20105;-93
2021/09/12 11:44:07;;;;;;;10.77;8.18;;;;;;;27.63;27.62;98641.94;5118236;27;19919;-92
2021/09/12 11:46:33;;;;;;;11.65;8.40;;;;;;;27.57;27.80;98641.69;5116284;28;20434;-95
2021/09/12 11:49:02;;;;;;;11.45;8.93;;;;;;;27.70;26.87;98630.41;5116992;28;20043;-93
2021/09/12 11:51:30;;;;;;;9.45;7.63;;;;;;;27.83;26.78;98630.88;5124108;27;20040;-95
2021/09/12 11:54:09;;;;;;;11.23;8.63;;;;;;;27.66;26.99;98622.50;5119136;27;20035;-92
2021/09/12 11:56:38;;;;;;;12.55;8.02;;;;;;;27.63;26.81;98635.63;5118264;27;20036;-94
2021/09/12 11:59:04;;;;;;;9.65;8.05;;;;;;;27.67;26.40;98620.63;5124039;27;20040;-96
2021/09/12 12:01:31;;;;;;;10.98;8.48;;;;;;;27.75;26.35;98614.41;5116345;28;20050;-93
2021/09/12 12:04:08;;;;;;;10.27;7.97;;;;;;;27.65;26.38;98609.88;5119008;27;20366;-94
2021/09/12 12:06:44;;;;;;;9.52;7.55;;;;;;;27.82;26.40;98599.97;5116413;28;20040;-94
2021/09/12 12:09:13;;;;;;;9.27;7.93;;;;;;;27.98;25.42;98617.56;5120340;27;20127;-93
2021/09/12 12:11:42;;;;;;;10.80;8.25;;;;;;;27.71;26.78;98611.09;5121820;27;20040;-93
2021/09/12 12:14:17;;;;;;;13.10;8.25;;;;;;;27.96;26.82;98605.94;5119532;27;20039;-94
2021/09/12 12:16:43;;;;;;;10.00;7.90;;;;;;;27.83;26.16;98581.69;5121916;27;20031;-93